Time;durP1;ratioP1;P1;durP2;ratioP2;P2;SDS_P1;SDS_P2;PMS_P1;PMS_P2;Temp;Humidity;BMP_temperature;BMP_pressure;BME280_temperature;BME280_humidity;BME280_pressure;Samples;Min_cycle;Max_cycle;Signal;HPM_P1;HPM_P2
2022/09/24 00:00:58;;;;;;;9.20;8.40;;;8.50;99.90;;;;;;4998329;28;20022;-60
2022/09/24 00:03:25;;;;;;;11.43;9.13;;;8.40;99.90;;;;;;4998984;28;20113;-59
2022/09/24 00:05:53;;;;;;;10.20;9.23;;;8.40;99.90;;;;;;4995363;28;20145;-60
2022/09/24 00:08:19;;;;;;;10.45;9.65;;;8.50;99.90;;;;;;4999362;28;20041;-60
2022/09/24 00:10:47;;;;;;;10.20;9.40;;;8.40;99.90;;;;;;5000749;28;20026;-60
2022/09/24 00:13:16;;;;;;;11.23;10.05;;;8.40;99.90;;;;;;4998684;28;20026;-60
2022/09/24 00:15:47;;;;;;;11.27;10.35;;;8.40;99.90;;;;;;4998023;28;20100;-59
2022/09/24 00:18:15;;;;;;;11.38;10.40;;;8.40;99.90;;;;;;4995714;28;20431;-60
2022/09/24 00:20:40;;;;;;;15.10;10.00;;;8.40;99.90;;;;;;4996431;28;20677;-60
2022/09/24 00:23:08;;;;;;;12.00;10.85;;;8.40;99.90;;;;;;5000032;28;20030;-59
2022/09/24 00:28:26;;;;;;;11.55;10.18;;;8.40;99.90;;;;;;5002612;28;20040;-60
2022/09/24 00:30:52;;;;;;;11.05;10.02;;;8.30;99.90;;;;;;4999983;28;20108;-59
2022/09/24 00:33:17;;;;;;;9.65;8.90;;;8.30;99.90;;;;;;4998868;28;20554;-60
2022/09/24 00:35:43;;;;;;;9.05;8.35;;;8.30;99.90;;;;;;4998434;28;20018;-58
2022/09/24 00:38:09;;;;;;;9.80;9.00;;;8.30;99.90;;;;;;4995203;28;20033;-60
2022/09/24 00:40:36;;;;;;;10.02;9.18;;;8.30;99.90;;;;;;4996050;28;20073;-60
2022/09/24 00:43:23;;;;;;;9.60;8.80;;;8.30;99.90;;;;;;4997564;28;20031;-60
2022/09/24 00:45:51;;;;;;;9.65;8.35;;;8.30;99.90;;;;;;4998215;28;20030;-59
2022/09/24 00:48:16;;;;;;;9.30;8.40;;;8.30;99.90;;;;;;4997532;28;20022;-60
2022/09/24 00:50:42;;;;;;;8.60;7.90;;;8.20;99.90;;;;;;4997680;28;20022;-59
2022/09/24 00:53:13;;;;;;;8.18;7.55;;;8.20;99.90;;;;;;4996909;28;20084;-58
2022/09/24 00:55:41;;;;;;;8.77;7.93;;;8.20;99.90;;;;;;4999856;28;20514;-59
2022/09/24 00:58:08;;;;;;;9.15;8.30;;;8.20;99.90;;;;;;4994649;28;20022;-60
2022/09/24 01:00:37;;;;;;;9.23;8.43;;;8.20;99.90;;;;;;4997317;28;20028;-59
2022/09/24 01:03:10;;;;;;;9.95;8.70;;;8.10;99.90;;;;;;4998427;28;20030;-58
2022/09/24 01:05:37;;;;;;;8.88;8.13;;;8.10;99.90;;;;;;4997713;28;20113;-59
2022/09/24 01:08:05;;;;;;;8.63;7.93;;;8.10;99.90;;;;;;4998027;28;20045;-59
2022/09/24 01:10:56;;;;;;;9.43;8.63;;;8.10;99.90;;;;;;4995620;28;20026;-59
2022/09/24 01:13:54;;;;;;;10.27;9.40;;;8.10;99.90;;;;;;4995283;28;20457;-59
2022/09/24 01:16:31;;;;;;;9.23;8.43;;;8.10;99.90;;;;;;4994951;28;20054;-60
2022/09/24 01:19:09;;;;;;;10.20;9.40;;;8.10;99.90;;;;;;4996899;28;20093;-59
2022/09/24 01:21:44;;;;;;;8.95;8.15;;;8.10;99.90;;;;;;5008405;28;20042;-60
2022/09/24 01:24:28;;;;;;;10.35;9.52;;;8.10;99.90;;;;;;4995332;28;20039;-59
2022/09/24 01:27:06;;;;;;;9.30;8.55;;;8.10;99.90;;;;;;4992566;28;20107;-59
2022/09/24 01:29:48;;;;;;;9.48;8.77;;;8.20;99.90;;;;;;4997349;28;20052;-60
2022/09/24 01:32:36;;;;;;;9.05;8.25;;;8.20;99.90;;;;;;4994144;28;20529;-59
2022/09/24 01:35:15;;;;;;;9.70;8.95;;;8.20;99.90;;;;;;4997069;28;20083;-60
2022/09/24 01:37:46;;;;;;;8.68;7.97;;;8.20;99.90;;;;;;4996456;28;20022;-60
2022/09/24 01:40:12;;;;;;;8.93;8.25;;;8.20;99.90;;;;;;4997485;28;20038;-59
2022/09/24 01:42:41;;;;;;;10.20;8.30;;;8.10;99.90;;;;;;4998315;28;20100;-58
2022/09/24 01:45:08;;;;;;;8.02;7.43;;;8.10;99.90;;;;;;4997942;28;20509;-60
2022/09/24 01:47:38;;;;;;;8.55;7.75;;;8.10;99.90;;;;;;4995871;28;20089;-60
2022/09/24 01:50:16;;;;;;;8.20;7.50;;;8.00;99.90;;;;;;4996858;28;20026;-57
2022/09/24 01:52:50;;;;;;;9.35;8.65;;;8.00;99.90;;;;;;4998283;28;20033;-60
2022/09/24 01:55:20;;;;;;;9.02;8.15;;;8.00;99.90;;;;;;4998020;28;20445;-60
2022/09/24 01:57:49;;;;;;;8.63;7.93;;;8.00;99.90;;;;;;5002669;28;20026;-59
2022/09/24 02:00:17;;;;;;;9.23;8.32;;;8.00;99.90;;;;;;4993629;28;20042;-59
2022/09/24 02:02:59;;;;;;;8.20;7.50;;;8.00;99.90;;;;;;4998587;28;20116;-59
2022/09/24 02:05:31;;;;;;;9.02;8.13;;;8.00;99.90;;;;;;4994503;28;20564;-59
2022/09/24 02:08:04;;;;;;;11.38;7.40;;;8.00;99.90;;;;;;4999442;28;20067;-60
2022/09/24 02:10:36;;;;;;;8.50;7.70;;;8.00;99.90;;;;;;4997463;28;20093;-59
2022/09/24 02:13:09;;;;;;;7.93;7.22;;;8.00;99.90;;;;;;5003103;28;20022;-59
2022/09/24 02:15:40;;;;;;;9.60;8.02;;;8.00;99.90;;;;;;4998259;28;20047;-59
2022/09/24 02:18:10;;;;;;;8.65;7.20;;;8.00;99.90;;;;;;4995804;28;20031;-59
2022/09/24 02:20:40;;;;;;;8.25;7.65;;;8.00;99.90;;;;;;5000472;28;20548;-60
2022/09/24 02:23:08;;;;;;;7.85;7.20;;;8.00;99.90;;;;;;4999061;28;20543;-59
2022/09/24 02:25:41;;;;;;;7.85;7.10;;;8.00;99.90;;;;;;4996516;28;20022;-59
2022/09/24 02:28:07;;;;;;;7.90;7.22;;;8.00;99.90;;;;;;4997808;28;20747;-58
2022/09/24 02:30:42;;;;;;;8.55;7.85;;;8.00;99.90;;;;;;5001445;28;20030;-60
2022/09/24 02:34:19;;;;;;;9.43;8.55;;;8.00;99.90;;;;;;5000695;28;20026;-59
2022/09/24 02:35:56;;;;;;;8.73;8.02;;;8.00;99.90;;;;;;4998124;28;20034;-58
2022/09/24 02:38:22;;;;;;;8.45;7.63;;;8.00;99.90;;;;;;5002714;28;20038;-59
2022/09/24 02:40:49;;;;;;;8.13;7.40;;;8.10;99.90;;;;;;4998010;28;20034;-59
2022/09/24 02:43:15;;;;;;;7.70;7.00;;;8.10;99.90;;;;;;5002753;28;20069;-59
2022/09/24 02:45:40;;;;;;;8.52;7.85;;;8.10;99.90;;;;;;5000679;28;20021;-60
2022/09/24 02:48:06;;;;;;;7.70;7.10;;;8.10;99.90;;;;;;4996625;28;20034;-59
2022/09/24 02:50:32;;;;;;;7.47;6.78;;;8.20;99.90;;;;;;5000888;28;20140;-59
2022/09/24 02:52:58;;;;;;;7.65;7.05;;;8.10;99.90;;;;;;4999564;28;20041;-60
2022/09/24 02:55:23;;;;;;;6.45;5.95;;;8.10;99.90;;;;;;4998725;28;20066;-59
2022/09/24 02:57:49;;;;;;;9.52;7.47;;;8.00;99.90;;;;;;5002195;28;20056;-59
2022/09/24 03:00:17;;;;;;;7.60;6.78;;;7.90;99.90;;;;;;5000626;28;20022;-59
2022/09/24 03:02:42;;;;;;;8.25;7.65;;;7.90;99.90;;;;;;5002663;28;20049;-59
2022/09/24 03:05:08;;;;;;;8.98;6.95;;;7.80;99.90;;;;;;5000044;28;20027;-60
2022/09/24 03:07:34;;;;;;;8.30;7.60;;;7.70;99.90;;;;;;4998904;28;20668;-60
2022/09/24 03:09:59;;;;;;;8.20;7.50;;;7.60;99.90;;;;;;4998722;28;20042;-58
2022/09/24 03:12:25;;;;;;;8.60;8.00;;;7.60;99.90;;;;;;5001485;28;20039;-60
2022/09/24 03:14:50;;;;;;;8.50;7.78;;;7.50;99.90;;;;;;5003171;28;20034;-59
2022/09/24 03:17:16;;;;;;;9.52;8.75;;;7.50;99.90;;;;;;5000010;28;20999;-58
2022/09/24 03:19:42;;;;;;;9.68;8.77;;;7.40;99.90;;;;;;5001219;28;20034;-59
2022/09/24 03:22:07;;;;;;;12.57;9.15;;;7.40;99.90;;;;;;5003323;28;20553;-59
2022/09/24 03:24:33;;;;;;;9.73;8.93;;;7.30;99.90;;;;;;5001563;28;20025;-59
2022/09/24 03:26:58;;;;;;;8.73;7.97;;;7.30;99.90;;;;;;4998308;28;20129;-59
2022/09/24 03:32:12;;;;;;;9.43;8.52;;;7.20;99.90;;;;;;4999130;28;20248;-60
2022/09/24 03:34:38;;;;;;;8.50;7.80;;;7.20;99.90;;;;;;4999855;28;20788;-60
2022/09/24 03:37:04;;;;;;;8.98;8.07;;;7.10;99.90;;;;;;5001797;28;20018;-62
2022/09/24 03:39:29;;;;;;;9.05;8.23;;;7.10;99.90;;;;;;5001417;28;20031;-60
2022/09/24 03:41:55;;;;;;;9.73;8.82;;;7.00;99.90;;;;;;4996618;28;20117;-59
2022/09/24 03:44:20;;;;;;;10.27;9.48;;;7.00;99.90;;;;;;4998553;28;20119;-60
2022/09/24 03:46:47;;;;;;;10.57;9.68;;;6.90;99.90;;;;;;4993484;28;20023;-60
2022/09/24 03:49:12;;;;;;;10.38;9.38;;;6.90;99.90;;;;;;4996053;28;20037;-60
2022/09/24 03:51:38;;;;;;;10.50;9.55;;;6.90;99.90;;;;;;5000599;28;20787;-61
2022/09/24 03:54:03;;;;;;;10.52;9.65;;;6.80;99.90;;;;;;4997092;28;20018;-60
2022/09/24 03:56:29;;;;;;;11.43;10.43;;;6.80;99.90;;;;;;4996361;28;20390;-59
2022/09/24 03:58:55;;;;;;;12.02;11.02;;;6.80;99.90;;;;;;4999923;28;20045;-59
2022/09/24 04:01:20;;;;;;;12.50;11.20;;;6.80;99.90;;;;;;4997508;28;20034;-59
2022/09/24 04:03:47;;;;;;;13.60;12.52;;;6.80;99.90;;;;;;5006288;28;20030;-60
2022/09/24 04:06:14;;;;;;;11.52;10.63;;;6.80;99.90;;;;;;4998836;28;20026;-61
2022/09/24 04:08:39;;;;;;;11.57;10.55;;;6.80;99.90;;;;;;4999038;28;20049;-60
2022/09/24 04:11:05;;;;;;;11.93;10.85;;;6.90;99.90;;;;;;4999951;28;20030;-59
2022/09/24 04:13:30;;;;;;;11.30;10.40;;;6.80;99.90;;;;;;4999475;28;20018;-59
2022/09/24 04:16:01;;;;;;;11.85;10.88;;;6.90;99.90;;;;;;4998835;28;20033;-59
2022/09/24 04:18:27;;;;;;;12.48;11.43;;;6.90;99.90;;;;;;4999042;28;20520;-60
2022/09/24 04:20:57;;;;;;;11.05;10.13;;;6.90;99.90;;;;;;4999629;28;20054;-60
2022/09/24 04:23:23;;;;;;;9.65;8.75;;;6.90;99.90;;;;;;4995291;28;20038;-58
2022/09/24 04:25:49;;;;;;;9.23;8.52;;;6.90;99.90;;;;;;5000113;28;20037;-60
2022/09/24 04:28:14;;;;;;;9.32;8.48;;;6.90;99.90;;;;;;4997297;28;20080;-59
2022/09/24 04:30:40;;;;;;;8.63;8.02;;;6.90;99.90;;;;;;4997521;28;20066;-60
2022/09/24 04:33:06;;;;;;;9.02;8.32;;;6.90;99.90;;;;;;4997409;28;20109;-60
2022/09/24 04:35:37;;;;;;;8.32;7.72;;;6.90;99.90;;;;;;4999437;28;20038;-60
2022/09/24 04:38:03;;;;;;;8.88;8.07;;;7.00;99.90;;;;;;4999289;28;20505;-59
2022/09/24 04:40:29;;;;;;;8.15;7.55;;;7.00;99.90;;;;;;4997565;28;20574;-59
2022/09/24 04:42:55;;;;;;;10.27;8.68;;;7.00;99.90;;;;;;4994526;28;20113;-60
2022/09/24 04:45:23;;;;;;;8.07;7.38;;;7.00;99.90;;;;;;4999219;28;20057;-60
2022/09/24 04:47:53;;;;;;;8.07;7.28;;;7.10;99.90;;;;;;4997610;28;20041;-60
2022/09/24 04:50:19;;;;;;;8.18;7.45;;;7.10;99.90;;;;;;5003331;28;20022;-60
2022/09/24 04:52:45;;;;;;;8.50;7.90;;;7.20;99.90;;;;;;4994594;28;20069;-60
2022/09/24 04:55:10;;;;;;;8.43;7.78;;;7.20;99.90;;;;;;4997990;28;20049;-60
2022/09/24 04:57:36;;;;;;;9.13;8.43;;;7.20;99.90;;;;;;4998405;28;20016;-60
2022/09/24 05:00:04;;;;;;;8.80;8.20;;;7.20;99.90;;;;;;4997348;28;20513;-59
2022/09/24 05:02:30;;;;;;;9.77;8.88;;;7.20;99.90;;;;;;4996147;28;20128;-60
2022/09/24 05:04:56;;;;;;;9.55;8.75;;;7.30;99.90;;;;;;4994234;28;20125;-61
2022/09/24 05:07:21;;;;;;;10.50;9.60;;;7.30;99.90;;;;;;4995427;28;20057;-60
2022/09/24 05:09:47;;;;;;;10.50;9.52;;;7.40;99.90;;;;;;4999433;28;20018;-59
2022/09/24 05:12:13;;;;;;;9.05;8.25;;;7.40;99.90;;;;;;4996208;28;20034;-59
2022/09/24 05:14:38;;;;;;;9.50;8.63;;;7.40;99.90;;;;;;4999277;28;20040;-59
2022/09/24 05:17:04;;;;;;;9.60;8.80;;;7.40;99.90;;;;;;4997719;28;20096;-61
2022/09/24 05:19:29;;;;;;;9.77;9.00;;;7.40;99.90;;;;;;4997331;28;20048;-59
2022/09/24 05:21:55;;;;;;;10.35;9.35;;;7.50;99.90;;;;;;4996940;28;20034;-60
2022/09/24 05:24:21;;;;;;;9.77;8.98;;;7.50;99.90;;;;;;4997731;28;20036;-60
2022/09/24 05:29:42;;;;;;;9.10;8.40;;;7.60;99.90;;;;;;5002776;28;20035;-60
2022/09/24 05:32:10;;;;;;;8.98;8.27;;;7.60;99.90;;;;;;4998649;28;20061;-60
2022/09/24 05:34:36;;;;;;;8.15;7.35;;;7.70;99.90;;;;;;4995940;28;20029;-60
2022/09/24 05:37:03;;;;;;;8.63;6.93;;;7.70;99.90;;;;;;5001193;28;20025;-59
2022/09/24 05:39:29;;;;;;;8.25;7.53;;;7.80;99.90;;;;;;4997688;28;20367;-59
2022/09/24 05:41:55;;;;;;;10.82;7.28;;;7.80;99.90;;;;;;5000777;28;20758;-60
2022/09/24 05:44:21;;;;;;;6.97;6.38;;;7.90;99.90;;;;;;4999562;28;20026;-59
2022/09/24 05:46:48;;;;;;;7.25;6.57;;;8.00;99.90;;;;;;4994434;28;20533;-59
2022/09/24 05:49:14;;;;;;;6.93;6.28;;;8.10;99.90;;;;;;4996668;28;20029;-59
2022/09/24 05:51:40;;;;;;;6.60;6.10;;;8.10;99.90;;;;;;4999944;28;20034;-60
2022/09/24 05:54:05;;;;;;;7.70;6.85;;;8.20;99.90;;;;;;4996037;28;20541;-60
2022/09/24 05:56:31;;;;;;;7.93;7.13;;;8.20;99.90;;;;;;4996594;28;20116;-59
2022/09/24 05:58:59;;;;;;;7.57;6.85;;;8.30;99.90;;;;;;5014288;28;20934;-60
2022/09/24 06:01:28;;;;;;;6.55;5.97;;;8.30;99.90;;;;;;4998777;28;20045;-60
2022/09/24 06:03:55;;;;;;;7.28;6.68;;;8.40;99.90;;;;;;5000144;28;20025;-60
2022/09/24 06:06:21;;;;;;;7.22;6.53;;;8.50;99.90;;;;;;4996436;28;20054;-60
2022/09/24 06:08:47;;;;;;;8.05;7.05;;;8.60;99.90;;;;;;5000385;28;20033;-59
2022/09/24 06:11:13;;;;;;;11.27;7.28;;;8.70;99.90;;;;;;4999577;28;20070;-59
2022/09/24 06:13:39;;;;;;;7.22;6.55;;;8.70;99.90;;;;;;5003641;28;20030;-62
2022/09/24 06:16:07;;;;;;;7.20;6.50;;;8.90;99.90;;;;;;5002163;28;20018;-61
2022/09/24 06:18:38;;;;;;;6.90;6.32;;;8.90;99.90;;;;;;5005903;28;20024;-61
2022/09/24 06:21:09;;;;;;;;;;;9.00;99.90;;;;;;5006476;28;20504;-59
2022/09/24 06:23:35;;;;;;;6.75;6.25;;;9.10;99.90;;;;;;4997886;28;20362;-60
2022/09/24 06:26:00;;;;;;;6.82;6.32;;;9.10;99.90;;;;;;5002264;28;20116;-59
2022/09/24 06:28:26;;;;;;;7.32;6.63;;;9.10;99.90;;;;;;4999960;28;20145;-60
2022/09/24 06:30:52;;;;;;;6.68;5.78;;;9.00;99.90;;;;;;5000511;28;20445;-59
2022/09/24 06:33:22;;;;;;;7.35;6.70;;;9.00;99.90;;;;;;4999990;28;20025;-61
2022/09/24 06:35:47;;;;;;;6.47;5.88;;;9.00;99.90;;;;;;4999808;28;20026;-59
2022/09/24 06:38:15;;;;;;;7.68;6.10;;;9.00;99.90;;;;;;5004669;28;20059;-59
2022/09/24 06:40:44;;;;;;;7.38;6.78;;;8.90;99.90;;;;;;5002645;28;20046;-61
2022/09/24 06:43:12;;;;;;;7.07;6.22;;;8.90;99.90;;;;;;5001570;28;20026;-59
2022/09/24 06:45:38;;;;;;;6.75;6.25;;;8.90;99.90;;;;;;4999673;28;20025;-61
2022/09/24 06:48:05;;;;;;;7.20;6.65;;;9.00;99.90;;;;;;4998753;28;20034;-61
2022/09/24 06:50:33;;;;;;;11.43;7.05;;;9.00;99.90;;;;;;5000164;28;20026;-62
2022/09/24 06:52:59;;;;;;;6.80;6.22;;;9.00;99.90;;;;;;4999289;28;20030;-61
2022/09/24 06:55:25;;;;;;;7.90;7.10;;;9.00;99.90;;;;;;4999937;28;20033;-61
2022/09/24 06:58:01;;;;;;;8.18;7.47;;;8.90;99.90;;;;;;4996793;28;20019;-62
2022/09/24 07:00:27;;;;;;;8.30;7.57;;;8.80;99.90;;;;;;4997364;28;20127;-61
2022/09/24 07:02:52;;;;;;;8.55;7.75;;;8.80;99.90;;;;;;4997679;28;20053;-61
2022/09/24 07:05:18;;;;;;;8.73;7.45;;;8.90;99.90;;;;;;5002375;28;20413;-59
2022/09/24 07:07:43;;;;;;;8.18;7.50;;;8.90;99.90;;;;;;4997363;28;20019;-58
2022/09/24 07:10:09;;;;;;;8.00;7.30;;;9.00;99.90;;;;;;4998423;28;20072;-59
2022/09/24 07:12:35;;;;;;;9.00;7.57;;;9.00;99.90;;;;;;4996151;28;20033;-58
2022/09/24 07:15:01;;;;;;;7.57;6.88;;;9.10;99.90;;;;;;5000274;28;20888;-59
2022/09/24 07:17:27;;;;;;;7.93;7.25;;;9.20;99.90;;;;;;4999962;28;20058;-59
2022/09/24 07:19:53;;;;;;;7.80;7.20;;;9.30;99.90;;;;;;4995608;28;20025;-57
2022/09/24 07:22:20;;;;;;;7.88;7.28;;;9.30;99.90;;;;;;4994272;28;20343;-58
2022/09/24 07:24:45;;;;;;;7.57;6.97;;;9.40;99.90;;;;;;4987628;28;20026;-59
2022/09/24 07:27:12;;;;;;;7.40;6.82;;;9.50;99.90;;;;;;4998261;28;20399;-58
2022/09/24 07:29:38;;;;;;;7.07;6.47;;;9.60;99.90;;;;;;5001614;28;20037;-60
2022/09/24 07:32:04;;;;;;;7.18;6.53;;;9.80;99.90;;;;;;4998949;28;20034;-58
2022/09/24 07:34:30;;;;;;;7.18;6.53;;;10.00;99.90;;;;;;4995551;28;20517;-59
2022/09/24 07:36:56;;;;;;;6.93;6.32;;;10.10;99.90;;;;;;4999295;28;20030;-58
2022/09/24 07:39:23;;;;;;;7.40;6.80;;;10.20;99.90;;;;;;4995650;28;20037;-58
2022/09/24 07:41:51;;;;;;;8.88;6.30;;;10.20;99.90;;;;;;4998353;28;20022;-57
2022/09/24 07:44:19;;;;;;;6.38;5.55;;;10.20;99.90;;;;;;5002001;28;20029;-58
2022/09/24 07:46:48;;;;;;;7.32;6.72;;;10.20;99.90;;;;;;4993319;28;20056;-58
2022/09/24 07:49:14;;;;;;;6.93;6.32;;;10.30;99.90;;;;;;4995541;28;20124;-59
2022/09/24 07:51:41;;;;;;;6.63;6.13;;;10.40;99.90;;;;;;5001356;28;20124;-59
2022/09/24 07:54:07;;;;;;;6.57;6.00;;;10.50;99.90;;;;;;4997586;28;20597;-59
2022/09/24 07:56:32;;;;;;;6.65;6.13;;;10.60;99.90;;;;;;4998134;28;20121;-58
2022/09/24 07:58:58;;;;;;;6.72;6.20;;;10.80;99.90;;;;;;5000671;28;20129;-60
2022/09/24 08:01:24;;;;;;;7.13;6.47;;;11.00;99.90;;;;;;4997848;28;20077;-61
2022/09/24 08:03:51;;;;;;;6.93;6.40;;;11.10;99.90;;;;;;4999768;28;20033;-61
2022/09/24 08:06:17;;;;;;;7.05;6.45;;;11.20;99.90;;;;;;4999135;28;20903;-61
2022/09/24 08:08:42;;;;;;;6.10;5.53;;;11.40;99.90;;;;;;4999188;28;20061;-61
2022/09/24 08:11:16;;;;;;;7.28;6.55;;;11.60;99.90;;;;;;4996631;28;20034;-61
2022/09/24 08:13:41;;;;;;;7.85;5.85;;;11.80;99.90;;;;;;4999924;28;20080;-61
2022/09/24 08:16:07;;;;;;;6.93;6.30;;;12.00;99.90;;;;;;5001772;28;20018;-62
2022/09/24 08:18:33;;;;;;;7.38;6.35;;;12.20;99.90;;;;;;4997210;28;20102;-61
2022/09/24 08:21:04;;;;;;;6.30;5.80;;;12.30;99.90;;;;;;5000561;28;20105;-61
2022/09/24 08:23:31;;;;;;;10.15;5.95;;;12.50;99.90;;;;;;4998922;28;20030;-60
2022/09/24 08:25:56;;;;;;;6.22;5.38;;;12.60;99.90;;;;;;4999541;28;20030;-60
2022/09/24 08:28:22;;;;;;;5.93;5.50;;;12.70;99.90;;;;;;4998058;28;20076;-62
2022/09/24 08:30:48;;;;;;;6.13;5.60;;;12.80;99.90;;;;;;4996253;28;20733;-61
2022/09/24 08:33:14;;;;;;;5.80;5.40;;;12.90;99.90;;;;;;4997916;28;20204;-58
2022/09/24 08:35:40;;;;;;;5.80;5.22;;;13.00;99.90;;;;;;5000386;28;20125;-60
2022/09/24 08:38:07;;;;;;;5.85;5.38;;;13.10;99.90;;;;;;4998786;28;20121;-61
2022/09/24 08:40:45;;;;;;;5.60;5.10;;;13.20;99.90;;;;;;4997655;28;20034;-61
2022/09/24 08:43:43;;;;;;;5.70;5.20;;;13.30;99.90;;;;;;4996105;28;20077;-61
2022/09/24 08:49:05;;;;;;;5.50;5.10;;;13.40;99.90;;;;;;4999440;28;20029;-61
2022/09/24 08:51:44;;;;;;;5.75;5.25;;;13.30;99.90;;;;;;4997729;28;20495;-62
2022/09/24 08:54:13;;;;;;;5.38;4.97;;;13.10;99.90;;;;;;4996008;28;20037;-61
2022/09/24 08:56:45;;;;;;;5.78;5.38;;;13.10;99.90;;;;;;4996232;28;20027;-61
2022/09/24 08:59:13;;;;;;;5.97;5.38;;;13.10;99.90;;;;;;4996721;28;20414;-62
2022/09/24 09:01:39;;;;;;;5.72;5.00;;;13.30;99.90;;;;;;4998244;28;20101;-58
2022/09/24 09:04:20;;;;;;;6.20;5.13;;;13.80;99.90;;;;;;4997025;28;20557;-59
2022/09/24 09:07:24;;;;;;;5.10;4.53;;;14.70;99.90;;;;;;4996770;28;20026;-59
2022/09/24 09:09:59;;;;;;;6.55;3.97;;;16.50;99.90;;;;;;4998725;28;20230;-58
2022/09/24 09:12:34;;;;;;;10.07;4.13;;;18.00;99.90;;;;;;4996554;28;20128;-60
2022/09/24 09:15:05;;;;;;;4.55;3.53;;;19.00;99.90;;;;;;4998387;28;20965;-60
2022/09/24 09:17:49;;;;;;;3.65;3.35;;;19.80;96.40;;;;;;4994529;28;20062;-60
2022/09/24 09:20:32;;;;;;;4.03;3.63;;;20.30;94.40;;;;;;4996377;28;20083;-59
2022/09/24 09:23:05;;;;;;;6.93;3.80;;;20.50;88.50;;;;;;5002563;28;20030;-59
2022/09/24 09:25:35;;;;;;;3.38;3.08;;;20.50;83.00;;;;;;4998706;28;20113;-60
2022/09/24 09:28:16;;;;;;;5.90;3.70;;;20.10;90.50;;;;;;4997650;28;20442;-59
2022/09/24 09:30:55;;;;;;;3.65;3.35;;;19.70;91.80;;;;;;4995638;28;20282;-59
2022/09/24 09:33:52;;;;;;;5.93;4.40;;;19.40;99.90;;;;;;4995205;28;20074;-59
2022/09/24 09:36:24;;;;;;;4.47;3.92;;;19.20;99.90;;;;;;4994214;28;20113;-60
2022/09/24 09:39:00;;;;;;;5.25;3.78;;;19.00;99.90;;;;;;4998758;28;20042;-59
2022/09/24 09:41:39;;;;;;;5.03;3.70;;;18.80;99.90;;;;;;4995458;28;20037;-59
2022/09/24 09:44:17;;;;;;;6.32;4.45;;;18.60;99.90;;;;;;4994994;28;20108;-59
2022/09/24 09:46:52;;;;;;;4.38;3.97;;;18.60;99.90;;;;;;5000889;28;20037;-59
2022/09/24 09:49:18;;;;;;;4.18;3.88;;;18.70;99.90;;;;;;4993351;28;20069;-59
2022/09/24 09:51:47;;;;;;;5.07;4.68;;;18.70;99.90;;;;;;4996836;28;20021;-60
2022/09/24 09:54:13;;;;;;;4.68;4.28;;;18.70;99.90;;;;;;4992895;28;20058;-59
2022/09/24 09:56:46;;;;;;;4.63;4.25;;;18.60;99.90;;;;;;4996787;28;20054;-59
2022/09/24 09:59:11;;;;;;;4.78;4.10;;;18.60;99.90;;;;;;5000359;28;20502;-59
2022/09/24 10:01:40;;;;;;;4.70;3.78;;;18.70;99.90;;;;;;4995805;28;20034;-60
2022/09/24 10:04:22;;;;;;;4.75;4.25;;;18.70;99.90;;;;;;4997719;28;20025;-59
2022/09/24 10:06:48;;;;;;;4.10;3.70;;;18.80;99.90;;;;;;4996569;28;20041;-61
2022/09/24 10:09:19;;;;;;;4.75;3.92;;;19.00;99.90;;;;;;5014203;28;20039;-59
2022/09/24 10:11:46;;;;;;;5.97;4.47;;;19.20;99.90;;;;;;4998470;28;20085;-59
2022/09/24 10:14:14;;;;;;;5.47;4.97;;;19.20;99.90;;;;;;5000278;28;20022;-60
2022/09/24 10:16:43;;;;;;;7.18;4.00;;;19.30;99.90;;;;;;4993281;28;20034;-60
2022/09/24 10:19:20;;;;;;;4.20;3.80;;;19.40;99.90;;;;;;5000061;28;20025;-60
2022/09/24 10:21:45;;;;;;;4.13;3.83;;;19.60;99.90;;;;;;4997366;28;20236;-60
2022/09/24 10:24:16;;;;;;;4.25;3.95;;;19.70;99.90;;;;;;4996902;28;20735;-60
2022/09/24 10:26:44;;;;;;;4.40;3.35;;;19.70;99.90;;;;;;4993450;28;20037;-60
2022/09/24 10:32:12;;;;;;;4.95;4.47;;;19.80;99.90;;;;;;4997758;28;20095;-61
2022/09/24 10:34:38;;;;;;;4.82;4.35;;;19.80;99.90;;;;;;4996703;28;20124;-60
2022/09/24 10:37:14;;;;;;;4.40;4.07;;;19.70;99.90;;;;;;4994252;28;20030;-60
2022/09/24 10:39:40;;;;;;;5.25;4.85;;;19.60;99.90;;;;;;4999142;28;20046;-60
2022/09/24 10:42:21;;;;;;;4.72;4.38;;;19.40;99.90;;;;;;4995519;28;20113;-60
2022/09/24 10:44:49;;;;;;;4.80;3.95;;;19.20;99.90;;;;;;4992872;28;20054;-60
2022/09/24 10:47:41;;;;;;;6.60;4.93;;;19.00;99.90;;;;;;4994284;28;20460;-60
2022/09/24 10:50:27;;;;;;;5.25;4.72;;;19.00;99.90;;;;;;4996075;28;20089;-60
2022/09/24 10:52:59;;;;;;;5.40;4.63;;;18.90;99.90;;;;;;4999606;28;20042;-60
2022/09/24 10:55:34;;;;;;;5.15;4.65;;;19.00;99.90;;;;;;5000939;28;20062;-58
2022/09/24 10:58:30;;;;;;;5.32;4.82;;;18.90;99.90;;;;;;4999648;28;20721;-60
2022/09/24 11:01:17;;;;;;;5.55;4.80;;;18.70;99.90;;;;;;4988366;28;20046;-60
2022/09/24 11:03:59;;;;;;;4.78;4.35;;;18.50;99.90;;;;;;4999923;28;20100;-60
2022/09/24 11:06:47;;;;;;;6.18;5.05;;;18.20;99.90;;;;;;4998880;28;20077;-59
2022/09/24 11:09:24;;;;;;;4.43;4.00;;;18.10;99.90;;;;;;4997760;28;20122;-60
2022/09/24 11:11:56;;;;;;;5.15;4.72;;;17.90;99.90;;;;;;4997840;28;20039;-60
2022/09/24 11:14:54;;;;;;;6.10;5.60;;;17.90;99.90;;;;;;4999381;28;20031;-60
2022/09/24 11:17:25;;;;;;;7.43;5.55;;;17.80;99.90;;;;;;5000257;28;20076;-59
2022/09/24 11:19:57;;;;;;;5.82;5.32;;;17.80;99.90;;;;;;4997091;28;20109;-59
2022/09/24 11:22:40;;;;;;;5.97;5.47;;;17.90;99.90;;;;;;4998121;28;20101;-60
2022/09/24 11:25:37;;;;;;;6.70;5.50;;;18.10;99.90;;;;;;5000514;28;20049;-60
2022/09/24 11:28:47;;;;;;;5.38;4.97;;;18.30;99.90;;;;;;5002507;28;20088;-60
2022/09/24 11:31:19;;;;;;;6.15;5.55;;;18.60;99.90;;;;;;5001740;28;20038;-59
2022/09/24 11:34:26;;;;;;;7.03;5.40;;;18.90;99.90;;;;;;5000057;28;20068;-60
2022/09/24 11:37:01;;;;;;;5.43;5.03;;;19.00;99.90;;;;;;5000433;28;20480;-60
2022/09/24 11:39:39;;;;;;;6.72;5.32;;;19.10;99.90;;;;;;4998619;28;20031;-60
2022/09/24 11:42:07;;;;;;;6.10;5.60;;;19.10;99.90;;;;;;5001595;28;20033;-59
2022/09/24 11:44:53;;;;;;;6.75;5.28;;;19.10;99.90;;;;;;5003386;28;20036;-59
2022/09/24 11:47:34;;;;;;;5.65;5.15;;;19.00;99.90;;;;;;4998922;28;20399;-59
2022/09/24 11:50:18;;;;;;;5.97;5.47;;;19.00;99.90;;;;;;4999174;28;20041;-59
2022/09/24 11:53:01;;;;;;;6.28;5.68;;;19.00;99.90;;;;;;4999352;28;20034;-59
2022/09/24 11:55:36;;;;;;;5.72;5.22;;;19.00;99.90;;;;;;4999898;28;20041;-59
2022/09/24 11:58:15;;;;;;;4.90;4.50;;;19.20;99.90;;;;;;4999737;28;20050;-60
2022/09/24 12:01:09;;;;;;;4.90;4.50;;;19.10;99.90;;;;;;4999278;28;20390;-59
2022/09/24 12:03:38;;;;;;;6.60;5.18;;;19.10;99.90;;;;;;4996641;28;20046;-59
2022/09/24 12:06:12;;;;;;;5.28;4.88;;;19.00;99.90;;;;;;4998038;28;20526;-60
2022/09/24 12:08:37;;;;;;;5.80;5.30;;;19.10;99.90;;;;;;4998058;28;20449;-59
2022/09/24 12:11:09;;;;;;;4.95;4.45;;;19.20;99.90;;;;;;4998573;28;20089;-59
2022/09/24 12:14:01;;;;;;;5.82;3.88;;;19.30;99.90;;;;;;4998814;28;20029;-58
2022/09/24 12:16:30;;;;;;;5.43;4.93;;;19.40;99.90;;;;;;4996694;28;20453;-60
2022/09/24 12:19:14;;;;;;;7.15;4.53;;;19.30;99.90;;;;;;4996719;28;20044;-59
2022/09/24 12:21:42;;;;;;;5.88;5.38;;;19.20;99.90;;;;;;4991572;28;20682;-59
2022/09/24 12:24:23;;;;;;;5.65;4.80;;;19.10;99.90;;;;;;4995113;28;20030;-59
2022/09/24 12:26:50;;;;;;;5.22;4.70;;;19.10;99.90;;;;;;4997674;28;20130;-59
2022/09/24 12:32:54;;;;;;;4.28;3.95;;;19.40;99.90;;;;;;4997628;28;20093;-59
2022/09/24 12:35:25;;;;;;;4.68;4.20;;;19.60;99.90;;;;;;4996301;28;20141;-59
2022/09/24 12:38:06;;;;;;;5.15;4.72;;;19.70;99.90;;;;;;4996568;28;20034;-59
2022/09/24 12:40:44;;;;;;;5.43;5.03;;;19.80;99.90;;;;;;4999459;28;20498;-59
2022/09/24 12:43:24;;;;;;;5.63;4.05;;;19.90;90.10;;;;;;4998433;28;20030;-60
2022/09/24 12:45:58;;;;;;;4.15;3.75;;;19.80;93.60;;;;;;4999653;28;20015;-59
2022/09/24 12:48:25;;;;;;;4.43;4.03;;;19.60;99.00;;;;;;4998027;28;20030;-58
2022/09/24 12:50:59;;;;;;;4.35;3.95;;;19.50;99.90;;;;;;4996794;28;20057;-59
2022/09/24 12:53:32;;;;;;;4.60;4.13;;;19.40;99.90;;;;;;4997482;28;20531;-60
2022/09/24 12:55:59;;;;;;;4.47;4.15;;;19.30;99.90;;;;;;4999165;28;20064;-59
2022/09/24 12:58:42;;;;;;;4.50;4.10;;;19.10;99.90;;;;;;4995010;28;20077;-59
2022/09/24 13:01:27;;;;;;;4.40;3.85;;;18.90;99.90;;;;;;4994810;28;20084;-59
2022/09/24 13:04:25;;;;;;;5.10;4.70;;;18.70;99.90;;;;;;4997522;28;20018;-59
2022/09/24 13:06:51;;;;;;;5.38;4.20;;;18.50;99.90;;;;;;5000898;28;20046;-58
2022/09/24 13:09:34;;;;;;;6.45;4.38;;;18.50;99.90;;;;;;4995540;28;20600;-59
2022/09/24 13:12:16;;;;;;;5.45;4.38;;;18.50;99.90;;;;;;4997912;28;20034;-59
2022/09/24 13:14:50;;;;;;;5.82;4.07;;;18.60;99.90;;;;;;4996936;28;20060;-59
2022/09/24 13:17:17;;;;;;;4.75;4.35;;;18.90;99.90;;;;;;4998773;28;20030;-58
2022/09/24 13:19:44;;;;;;;5.40;4.90;;;19.00;99.90;;;;;;4998270;28;20433;-59
2022/09/24 13:22:29;;;;;;;4.60;4.20;;;19.10;99.90;;;;;;4997390;28;20227;-59
2022/09/24 13:25:25;;;;;;;4.93;4.40;;;19.00;99.90;;;;;;4999132;28;20030;-59
2022/09/24 13:28:02;;;;;;;4.32;4.03;;;19.00;99.90;;;;;;4990765;28;20064;-60